createdAt,value
2018-05-29T00:02:14.407Z,100305
2018-05-29T00:04:51.957Z,100300
2018-05-29T00:07:30.016Z,100303
2018-05-29T00:10:05.758Z,100302
2018-05-29T00:12:42.376Z,100293
2018-05-29T00:15:18.653Z,100292
2018-05-29T00:17:55.445Z,100293
2018-05-29T00:20:32.524Z,100296
2018-05-29T00:23:09.906Z,100296
2018-05-29T00:25:46.381Z,100295
2018-05-29T00:28:22.764Z,100291
2018-05-29T00:31:00.157Z,100281
2018-05-29T00:33:37.957Z,100280
2018-05-29T00:36:14.115Z,100274
2018-05-29T00:38:50.336Z,100275
2018-05-29T00:41:27.669Z,100273
2018-05-29T00:44:04.921Z,100270
2018-05-29T00:46:41.894Z,100266
2018-05-29T00:49:18.843Z,100267
2018-05-29T00:51:56.503Z,100262
2018-05-29T00:54:33.478Z,100263
2018-05-29T00:57:10.474Z,100260
2018-05-29T00:59:47.721Z,100264
2018-05-29T01:02:25.615Z,100265
2018-05-29T01:05:01.885Z,100262
2018-05-29T01:07:39.725Z,100264
2018-05-29T01:10:17.917Z,100263
2018-05-29T01:12:55.077Z,100266
2018-05-29T01:15:32.064Z,100266
2018-05-29T01:18:08.413Z,100267
2018-05-29T01:20:45.409Z,100269
2018-05-29T01:23:21.516Z,100276
2018-05-29T01:25:58.068Z,100273
2018-05-29T01:28:34.117Z,100270
2018-05-29T01:31:10.216Z,100269
2018-05-29T01:33:46.729Z,100266
2018-05-29T01:36:23.300Z,100266
2018-05-29T01:38:59.648Z,100262
2018-05-29T01:41:35.837Z,100265
2018-05-29T01:44:12.381Z,100266
2018-05-29T01:46:48.880Z,100262
2018-05-29T01:49:25.766Z,100261
2018-05-29T01:52:02.718Z,100255
2018-05-29T01:54:39.078Z,100248
2018-05-29T01:57:15.159Z,100239
2018-05-29T01:59:52.545Z,100236
2018-05-29T02:02:28.828Z,100232
2018-05-29T02:05:06.101Z,100227
2018-05-29T02:07:42.426Z,100226
2018-05-29T02:10:18.064Z,100226
2018-05-29T02:12:54.625Z,100223
2018-05-29T02:15:31.913Z,100226
2018-05-29T02:18:09.798Z,100228
2018-05-29T02:20:47.514Z,100225
2018-05-29T02:23:25.441Z,100218
2018-05-29T02:26:02.828Z,100211
2018-05-29T02:28:40.068Z,100213
2018-05-29T02:31:19.501Z,100212
2018-05-29T02:33:57.966Z,100212
2018-05-29T02:36:35.225Z,100203
2018-05-29T02:39:11.753Z,100204
2018-05-29T02:41:48.401Z,100202
2018-05-29T02:44:26.090Z,100200
2018-05-29T02:47:02.519Z,100197
2018-05-29T02:49:38.914Z,100199
2018-05-29T02:52:15.275Z,100196
2018-05-29T02:54:51.896Z,100201
2018-05-29T02:57:29.192Z,100202
2018-05-29T03:00:05.684Z,100202
2018-05-29T03:02:42.708Z,100199
2018-05-29T03:05:18.744Z,100202
2018-05-29T03:07:56.676Z,100198
2018-05-29T03:10:33.629Z,100202
2018-05-29T03:13:10.333Z,100199
2018-05-29T03:15:46.686Z,100202
2018-05-29T03:18:23.664Z,100201
2018-05-29T03:21:00.960Z,100201
2018-05-29T03:23:37.445Z,100208
2018-05-29T03:26:14.073Z,100203
2018-05-29T03:28:50.342Z,100208
2018-05-29T03:31:27.559Z,100211
2018-05-29T03:34:05.254Z,100208
2018-05-29T03:36:42.744Z,100206
2018-05-29T03:39:21.033Z,100207
2018-05-29T03:41:58.925Z,100202
2018-05-29T03:44:35.916Z,100192
2018-05-29T03:47:12.847Z,100200
2018-05-29T03:49:51.032Z,100190
2018-05-29T03:52:27.780Z,100196
2018-05-29T03:55:04.196Z,100194
2018-05-29T03:57:40.204Z,100201
2018-05-29T04:00:17.523Z,100198
2018-05-29T04:02:55.628Z,100196
2018-05-29T04:05:35.977Z,100192
2018-05-29T04:08:13.045Z,100188
2018-05-29T04:10:50.021Z,100186
2018-05-29T04:13:26.772Z,100188
2018-05-29T04:16:03.393Z,100188
2018-05-29T04:18:40.381Z,100187
2018-05-29T04:21:17.005Z,100190
2018-05-29T04:23:55.217Z,100187
2018-05-29T04:26:31.884Z,100193
2018-05-29T04:29:08.904Z,100189
2018-05-29T04:31:47.217Z,100188
2018-05-29T04:34:24.066Z,100189
2018-05-29T04:37:01.956Z,100190
2018-05-29T04:39:39.557Z,100191
2018-05-29T04:42:17.820Z,100189
2018-05-29T04:44:54.749Z,100190
2018-05-29T04:47:32.326Z,100192
2018-05-29T04:50:10.226Z,100189
2018-05-29T04:52:47.204Z,100194
2018-05-29T04:55:24.737Z,100191
2018-05-29T04:58:02.459Z,100183
2018-05-29T05:00:39.695Z,100187
2018-05-29T05:03:17.379Z,100186
2018-05-29T05:05:55.505Z,100188
2018-05-29T05:08:32.945Z,100184
2018-05-29T05:11:09.824Z,100191
2018-05-29T05:13:47.168Z,100185
2018-05-29T05:16:25.241Z,100183
2018-05-29T05:19:02.229Z,100182
2018-05-29T05:21:40.517Z,100180
2018-05-29T05:24:18.388Z,100172
2018-05-29T05:26:54.958Z,100178
2018-05-29T05:29:32.622Z,100173
2018-05-29T05:32:09.768Z,100176
2018-05-29T05:34:48.264Z,100173
2018-05-29T05:37:25.130Z,100173
2018-05-29T05:40:01.847Z,100173
2018-05-29T05:42:39.029Z,100174
2018-05-29T05:45:16.637Z,100173
2018-05-29T05:47:54.531Z,100170
2018-05-29T05:50:32.694Z,100164
2018-05-29T05:53:09.808Z,100166
2018-05-29T05:55:47.534Z,100165
2018-05-29T05:58:26.171Z,100162
2018-05-29T06:01:02.704Z,100167
2018-05-29T06:03:40.725Z,100168
2018-05-29T06:06:17.709Z,100161
2018-05-29T06:08:55.059Z,100160
2018-05-29T06:11:32.330Z,100161
2018-05-29T06:14:09.666Z,100155
2018-05-29T06:16:46.071Z,100150
2018-05-29T06:19:22.602Z,100149
2018-05-29T06:21:59.754Z,100150
2018-05-29T06:24:36.441Z,100147
2018-05-29T06:27:12.953Z,100147
2018-05-29T06:29:49.857Z,100149
2018-05-29T06:32:27.885Z,100148
2018-05-29T06:35:04.011Z,100151
2018-05-29T06:37:41.408Z,100149
2018-05-29T06:40:17.694Z,100142
2018-05-29T06:42:54.112Z,100140
2018-05-29T06:45:31.674Z,100144
2018-05-29T06:48:08.023Z,100145
2018-05-29T06:50:44.224Z,100141
2018-05-29T06:53:22.136Z,100135
2018-05-29T06:55:59.076Z,100134
2018-05-29T06:58:36.564Z,100131
2018-05-29T07:01:13.833Z,100133
2018-05-29T07:03:51.001Z,100129
2018-05-29T07:06:29.628Z,100122
2018-05-29T07:09:05.708Z,100118
2018-05-29T07:11:42.807Z,100120
2018-05-29T07:14:20.087Z,100116
2018-05-29T07:16:56.152Z,100120
2018-05-29T07:19:34.301Z,100119
2018-05-29T07:22:10.729Z,100119
2018-05-29T07:24:47.709Z,100117
2018-05-29T07:27:24.061Z,100114
2018-05-29T07:30:01.320Z,100104
2018-05-29T07:32:38.645Z,100105
2018-05-29T07:35:15.232Z,100098
2018-05-29T07:37:53.218Z,100097
2018-05-29T07:40:30.184Z,100095
2018-05-29T07:43:07.168Z,100095
2018-05-29T07:45:43.572Z,100089
2018-05-29T07:48:21.505Z,100094
2018-05-29T07:50:58.789Z,100091
2018-05-29T07:53:35.090Z,100098
2018-05-29T07:56:13.005Z,100090
2018-05-29T07:58:50.354Z,100088
2018-05-29T08:01:28.081Z,100091
2018-05-29T08:04:05.274Z,100087
2018-05-29T08:06:43.386Z,100082
2018-05-29T08:09:20.023Z,100079
2018-05-29T08:11:57.340Z,100082
2018-05-29T08:14:35.232Z,100084
2018-05-29T08:17:12.562Z,100082
2018-05-29T08:19:50.113Z,100075
2018-05-29T08:22:27.146Z,100074
2018-05-29T08:25:04.644Z,100073
2018-05-29T08:27:41.670Z,100075
2018-05-29T08:30:18.571Z,100068
2018-05-29T08:32:56.944Z,100072
2018-05-29T08:35:33.847Z,100069
2018-05-29T08:38:11.742Z,100067
2018-05-29T08:40:48.704Z,100062
2018-05-29T08:43:26.329Z,100065
2018-05-29T08:46:03.759Z,100067
2018-05-29T08:48:41.184Z,100064
2018-05-29T08:51:18.472Z,100064
2018-05-29T08:53:54.835Z,100057
2018-05-29T08:56:32.849Z,100053
2018-05-29T08:59:09.414Z,100055
2018-05-29T09:01:47.324Z,100060
2018-05-29T09:04:24.610Z,100046
2018-05-29T09:07:00.432Z,100046
2018-05-29T09:09:37.953Z,100041
2018-05-29T09:12:15.861Z,100039
2018-05-29T09:14:52.735Z,100033
2018-05-29T09:17:29.444Z,100035
2018-05-29T09:20:05.855Z,100035
2018-05-29T09:22:42.571Z,100040
2018-05-29T09:25:19.519Z,100041
2018-05-29T09:27:57.325Z,100037
2018-05-29T09:30:34.198Z,100034
2018-05-29T09:33:10.199Z,100036
2018-05-29T09:35:46.874Z,100036
2018-05-29T09:38:23.807Z,100041
2018-05-29T09:41:01.090Z,100046
2018-05-29T09:43:37.771Z,100035
2018-05-29T09:46:14.749Z,100024
2018-05-29T09:48:53.218Z,100018
2018-05-29T09:51:31.478Z,100015
2018-05-29T09:54:07.957Z,100018
2018-05-29T09:56:44.504Z,100018
2018-05-29T09:59:22.405Z,100018
2018-05-29T10:01:59.081Z,100026
2018-05-29T10:04:35.765Z,100016
2018-05-29T10:07:12.770Z,100010
2018-05-29T10:09:49.890Z,100011
2018-05-29T10:12:27.602Z,100000
2018-05-29T10:15:03.952Z,100003
2018-05-29T10:17:40.873Z,100007
2018-05-29T10:20:17.631Z,99999
2018-05-29T10:22:55.500Z,99996
2018-05-29T10:25:32.510Z,99991
2018-05-29T10:28:10.040Z,99995
2018-05-29T10:30:48.018Z,99990
2018-05-29T10:33:24.970Z,99985
2018-05-29T10:36:02.276Z,99982
2018-05-29T10:38:38.924Z,99982
2018-05-29T10:41:15.624Z,99988
2018-05-29T10:43:53.508Z,99965
2018-05-29T10:46:30.121Z,99974
2018-05-29T10:49:08.418Z,99967
2018-05-29T10:51:45.397Z,99973
2018-05-29T10:54:23.293Z,99971
2018-05-29T10:57:01.230Z,99962
2018-05-29T10:59:38.437Z,99962
2018-05-29T11:02:15.180Z,99956
2018-05-29T11:04:52.165Z,99953
2018-05-29T11:07:29.866Z,99955
2018-05-29T11:10:07.228Z,99949
2018-05-29T11:12:43.611Z,99948
2018-05-29T11:15:20.351Z,99952
2018-05-29T11:17:57.658Z,99942
2018-05-29T11:20:34.465Z,99944
2018-05-29T11:23:11.177Z,99938
2018-05-29T11:25:49.207Z,99949
2018-05-29T11:28:26.409Z,99937
2018-05-29T11:31:03.462Z,99947
2018-05-29T11:33:39.788Z,99939
2018-05-29T11:36:18.238Z,99940
2018-05-29T11:38:55.453Z,99936
2018-05-29T11:41:33.762Z,99933
2018-05-29T11:44:10.477Z,99923
2018-05-29T11:46:47.372Z,99927
2018-05-29T11:49:25.224Z,99927
2018-05-29T11:52:02.678Z,99926
2018-05-29T11:54:39.704Z,99925
2018-05-29T11:57:16.957Z,99924
2018-05-29T11:59:54.504Z,99921
2018-05-29T12:02:32.189Z,99922
2018-05-29T12:05:09.726Z,99911
2018-05-29T12:07:47.941Z,99908
2018-05-29T12:10:25.678Z,99919
2018-05-29T12:13:04.805Z,99913
2018-05-29T12:15:43.490Z,99912
2018-05-29T12:18:19.640Z,99902
2018-05-29T12:20:56.325Z,99901
2018-05-29T12:23:33.852Z,99901
2018-05-29T12:26:10.479Z,99897
2018-05-29T12:28:48.796Z,99894
2018-05-29T12:31:26.045Z,99896
2018-05-29T12:34:03.888Z,99895
2018-05-29T12:36:40.733Z,99889
2018-05-29T12:39:18.354Z,99886
2018-05-29T12:41:55.757Z,99885
2018-05-29T12:44:31.804Z,99878
2018-05-29T12:47:08.765Z,99861
2018-05-29T12:49:45.741Z,99868
2018-05-29T12:52:22.350Z,99847
2018-05-29T12:54:59.681Z,99866
2018-05-29T12:57:37.290Z,99864
2018-05-29T13:00:14.946Z,99863
2018-05-29T13:02:51.878Z,99857
2018-05-29T13:05:28.272Z,99850
2018-05-29T13:08:04.550Z,99858
2018-05-29T13:10:41.589Z,99841
2018-05-29T13:13:18.594Z,99850
2018-05-29T13:15:55.213Z,99846
2018-05-29T13:18:33.569Z,99848
2018-05-29T13:21:10.414Z,99841
2018-05-29T13:23:47.646Z,99833
2018-05-29T13:26:25.306Z,99827
2018-05-29T13:29:01.349Z,99847
2018-05-29T13:31:38.652Z,99838
2018-05-29T13:34:16.088Z,99834
2018-05-29T13:36:54.149Z,99827
2018-05-29T13:39:32.334Z,99838
2018-05-29T13:42:10.589Z,99817
2018-05-29T13:44:47.032Z,99811
2018-05-29T13:47:25.090Z,99811
2018-05-29T13:50:01.825Z,99824
2018-05-29T13:52:39.041Z,99811
2018-05-29T13:55:15.348Z,99801
2018-05-29T13:57:52.461Z,99798
2018-05-29T14:00:30.320Z,99800
2018-05-29T14:03:07.090Z,99798
2018-05-29T14:05:44.251Z,99806
2018-05-29T14:08:21.316Z,99792
2018-05-29T14:10:59.329Z,99785
2018-05-29T14:13:36.198Z,99780
2018-05-29T14:16:12.498Z,99772
2018-05-29T14:18:50.897Z,99777
2018-05-29T14:21:29.174Z,99772
2018-05-29T14:24:07.192Z,99775
2018-05-29T14:26:43.813Z,99774
2018-05-29T14:29:22.035Z,99776
2018-05-29T14:31:59.109Z,99771
2018-05-29T14:34:36.545Z,99772
2018-05-29T14:37:12.780Z,99771
2018-05-29T14:39:49.343Z,99768
2018-05-29T14:42:26.631Z,99774
2018-05-29T14:45:03.306Z,99774
2018-05-29T14:47:39.819Z,99760
2018-05-29T14:50:16.353Z,99761
2018-05-29T14:52:54.460Z,99757
2018-05-29T14:55:31.744Z,99755
2018-05-29T14:58:08.209Z,99761
2018-05-29T15:00:44.576Z,99753
2018-05-29T15:03:21.044Z,99748
2018-05-29T15:05:57.622Z,99748
2018-05-29T15:08:35.041Z,99744
2018-05-29T15:11:12.178Z,99752
2018-05-29T15:13:49.383Z,99742
2018-05-29T15:16:25.317Z,99742
2018-05-29T15:19:02.852Z,99729
2018-05-29T15:21:39.835Z,99729
2018-05-29T15:24:17.919Z,99721
2018-05-29T15:26:54.447Z,99726
2018-05-29T15:29:31.658Z,99726
2018-05-29T15:32:08.529Z,99717
2018-05-29T15:34:46.227Z,99712
2018-05-29T15:37:24.435Z,99714
2018-05-29T15:40:02.652Z,99707
2018-05-29T15:42:39.936Z,99701
2018-05-29T15:45:16.560Z,99705
2018-05-29T15:47:53.083Z,99703
2018-05-29T15:50:30.012Z,99703
2018-05-29T15:53:06.962Z,99702
2018-05-29T15:55:44.626Z,99710
2018-05-29T15:58:22.987Z,99698
2018-05-29T16:00:59.438Z,99699
2018-05-29T16:03:36.697Z,99692
2018-05-29T16:06:14.297Z,99691
2018-05-29T16:08:51.876Z,99693
2018-05-29T16:11:29.173Z,99686
2018-05-29T16:14:05.831Z,99684
2018-05-29T16:16:43.889Z,99691
2018-05-29T16:19:21.645Z,99690
2018-05-29T16:21:58.232Z,99684
2018-05-29T16:24:34.173Z,99679
2018-05-29T16:27:11.729Z,99673
2018-05-29T16:29:50.702Z,99677
2018-05-29T16:32:27.803Z,99679
2018-05-29T16:35:03.469Z,99678
2018-05-29T16:37:40.369Z,99673
2018-05-29T16:40:18.074Z,99675
2018-05-29T16:42:54.992Z,99668
2018-05-29T16:45:32.379Z,99672
2018-05-29T16:48:09.141Z,99669
2018-05-29T16:50:45.410Z,99670
2018-05-29T16:53:22.963Z,99674
2018-05-29T16:55:59.265Z,99679
2018-05-29T16:58:36.140Z,99690
2018-05-29T17:01:13.639Z,99688
2018-05-29T17:03:50.313Z,99695
2018-05-29T17:06:27.012Z,99690
2018-05-29T17:09:03.865Z,99688
2018-05-29T17:11:40.726Z,99697
2018-05-29T17:14:18.545Z,99699
2018-05-29T17:16:55.817Z,99701
2018-05-29T17:19:32.796Z,99696
2018-05-29T17:22:10.793Z,99701
2018-05-29T17:24:48.315Z,99702
2018-05-29T17:27:24.866Z,99697
2018-05-29T17:30:02.037Z,99700
2018-05-29T17:32:38.617Z,99701
2018-05-29T17:35:16.520Z,99696
2018-05-29T17:37:54.363Z,99701
2018-05-29T17:40:30.736Z,99698
2018-05-29T17:43:07.001Z,99703
2018-05-29T17:45:43.437Z,99709
2018-05-29T17:48:19.313Z,99715
2018-05-29T17:50:56.244Z,99716
2018-05-29T17:53:33.244Z,99716
2018-05-29T17:56:09.572Z,99715
2018-05-29T17:58:46.118Z,99721
2018-05-29T18:01:24.320Z,99722
2018-05-29T18:04:02.369Z,99714
2018-05-29T18:06:39.130Z,99711
2018-05-29T18:09:15.412Z,99712
2018-05-29T18:11:53.331Z,99716
2018-05-29T18:14:31.457Z,99713
2018-05-29T18:17:07.846Z,99715
2018-05-29T18:19:44.695Z,99711
2018-05-29T18:22:21.221Z,99714
2018-05-29T18:24:59.141Z,99713
2018-05-29T18:27:36.124Z,99714
2018-05-29T18:30:12.628Z,99728
2018-05-29T18:32:49.254Z,99723
2018-05-29T18:35:26.575Z,99728
2018-05-29T18:38:04.084Z,99728
2018-05-29T18:40:41.352Z,99730
2018-05-29T18:43:18.017Z,99732
2018-05-29T18:45:56.420Z,99739
2018-05-29T18:48:33.464Z,99745
2018-05-29T18:51:10.444Z,99748
2018-05-29T18:53:48.721Z,99753
2018-05-29T18:56:25.158Z,99751
2018-05-29T18:59:01.810Z,99760
2018-05-29T19:01:39.308Z,99764
2018-05-29T19:04:15.653Z,99773
2018-05-29T19:06:52.665Z,99774
2018-05-29T19:09:29.502Z,99775
2018-05-29T19:12:07.811Z,99774
2018-05-29T19:14:44.825Z,99778
2018-05-29T19:17:22.032Z,99776
2018-05-29T19:19:59.134Z,99777
2018-05-29T19:22:36.379Z,99780
2018-05-29T19:25:14.383Z,99785
2018-05-29T19:27:51.260Z,99785
2018-05-29T19:30:28.540Z,99794
2018-05-29T19:33:05.265Z,99799
2018-05-29T19:35:41.857Z,99804
2018-05-29T19:38:18.245Z,99806
2018-05-29T19:40:54.857Z,99802
2018-05-29T19:43:31.059Z,99801
2018-05-29T19:46:07.975Z,99806
2018-05-29T19:48:44.947Z,99804
2018-05-29T19:51:22.490Z,99810
2018-05-29T19:53:58.798Z,99808
2018-05-29T19:56:35.314Z,99816
2018-05-29T19:59:13.072Z,99812
2018-05-29T20:01:50.127Z,99824
2018-05-29T20:04:28.306Z,99829
2018-05-29T20:07:05.500Z,99836
2018-05-29T20:09:42.321Z,99833
2018-05-29T20:12:19.222Z,99832
2018-05-29T20:14:56.466Z,99840
2018-05-29T20:17:32.395Z,99847
2018-05-29T20:20:08.821Z,99838
2018-05-29T20:22:46.661Z,99849
2018-05-29T20:25:23.185Z,99849
2018-05-29T20:27:59.646Z,99836
2018-05-29T20:30:36.326Z,99839
2018-05-29T20:33:13.342Z,99840
2018-05-29T20:35:50.285Z,99843
2018-05-29T20:38:27.569Z,99855
2018-05-29T20:41:05.163Z,99870
2018-05-29T20:43:44.053Z,99888
2018-05-29T20:46:22.606Z,99882
2018-05-29T20:48:59.857Z,99906
2018-05-29T20:51:37.086Z,99896
2018-05-29T20:54:13.446Z,99907
2018-05-29T20:56:50.431Z,99896
2018-05-29T20:59:27.098Z,99896
2018-05-29T21:02:04.014Z,99878
2018-05-29T21:04:40.865Z,99873
2018-05-29T21:07:21.473Z,99869
2018-05-29T21:09:58.455Z,99868
2018-05-29T21:12:35.131Z,99861
2018-05-29T21:15:12.006Z,99858
2018-05-29T21:17:49.941Z,99863
2018-05-29T21:20:25.868Z,99860
2018-05-29T21:23:03.628Z,99860
2018-05-29T21:25:40.538Z,99861
2018-05-29T21:28:16.671Z,99860
2018-05-29T21:30:53.597Z,99864
2018-05-29T21:33:31.233Z,99865
2018-05-29T21:36:08.164Z,99857
2018-05-29T21:38:45.085Z,99847
2018-05-29T21:41:23.060Z,99852
2018-05-29T21:44:00.038Z,99844
2018-05-29T21:46:37.484Z,99837
2018-05-29T21:49:14.192Z,99827
2018-05-29T21:51:52.252Z,99830
2018-05-29T21:54:29.780Z,99831
2018-05-29T21:57:07.389Z,99825
2018-05-29T21:59:43.899Z,99825
2018-05-29T22:02:21.253Z,99816
2018-05-29T22:04:57.853Z,99807
2018-05-29T22:07:35.357Z,99809
2018-05-29T22:10:14.650Z,99814
2018-05-29T22:12:51.530Z,99816
2018-05-29T22:15:29.019Z,99815
2018-05-29T22:18:05.689Z,99817
2018-05-29T22:20:43.940Z,99821
2018-05-29T22:23:20.882Z,99821
2018-05-29T22:25:57.413Z,99825
2018-05-29T22:28:34.225Z,99821
2018-05-29T22:31:11.316Z,99832
2018-05-29T22:33:48.155Z,99833
2018-05-29T22:36:25.702Z,99838
2018-05-29T22:39:02.107Z,99841
2018-05-29T22:41:40.345Z,99848
2018-05-29T22:44:18.386Z,99852
2018-05-29T22:46:55.544Z,99851
2018-05-29T22:49:32.542Z,99852
2018-05-29T22:52:10.069Z,99863
2018-05-29T22:54:46.785Z,99872
2018-05-29T22:57:23.744Z,99880
2018-05-29T23:00:01.233Z,99878
2018-05-29T23:02:37.414Z,99874
2018-05-29T23:05:13.503Z,99877
2018-05-29T23:07:49.839Z,99878
2018-05-29T23:10:27.123Z,99880
2018-05-29T23:13:04.420Z,99877
2018-05-29T23:15:41.657Z,99882
2018-05-29T23:18:19.031Z,99875
2018-05-29T23:20:55.972Z,99876
2018-05-29T23:23:32.076Z,99874
2018-05-29T23:26:08.352Z,99877
2018-05-29T23:28:44.982Z,99880
2018-05-29T23:31:22.118Z,99871
2018-05-29T23:33:59.642Z,99871
2018-05-29T23:36:36.241Z,99874
2018-05-29T23:39:13.096Z,99873
2018-05-29T23:41:49.316Z,99865
2018-05-29T23:44:26.105Z,99860
2018-05-29T23:47:02.868Z,99864
2018-05-29T23:49:39.371Z,99861
2018-05-29T23:52:15.718Z,99867
2018-05-29T23:54:52.093Z,99867
2018-05-29T23:57:28.845Z,99870
